createdAt,value
2018-09-25T00:02:15.330Z,84.62
2018-09-25T00:04:48.864Z,84.36
2018-09-25T00:07:22.411Z,84.37
2018-09-25T00:09:55.825Z,84.40
2018-09-25T00:12:29.276Z,83.72
2018-09-25T00:15:02.607Z,84.01
2018-09-25T00:17:36.037Z,83.53
2018-09-25T00:20:09.700Z,83.50
2018-09-25T00:22:43.261Z,83.81
2018-09-25T00:25:16.645Z,83.80
2018-09-25T00:27:50.170Z,84.02
2018-09-25T00:30:23.556Z,84.12
2018-09-25T00:32:57.136Z,84.05
2018-09-25T00:35:30.521Z,83.92
2018-09-25T00:38:03.971Z,84.36
2018-09-25T00:40:37.400Z,84.20
2018-09-25T00:43:10.885Z,84.32
2018-09-25T00:45:44.585Z,84.62
2018-09-25T00:48:18.204Z,84.27
2018-09-25T00:50:51.565Z,83.49
2018-09-25T00:53:25.090Z,83.07
2018-09-25T00:55:58.456Z,82.84
2018-09-25T00:58:31.966Z,83.93
2018-09-25T01:01:05.355Z,85.01
2018-09-25T01:03:38.812Z,84.91
2018-09-25T01:06:12.277Z,85.04
2018-09-25T01:08:45.824Z,84.99
2018-09-25T01:11:19.364Z,85.73
2018-09-25T01:13:52.934Z,85.42
2018-09-25T01:16:26.412Z,86.08
2018-09-25T01:18:59.774Z,85.94
2018-09-25T01:21:33.218Z,86.15
2018-09-25T01:24:06.590Z,85.90
2018-09-25T01:26:40.221Z,85.93
2018-09-25T01:29:13.640Z,86.30
2018-09-25T01:31:46.964Z,85.81
2018-09-25T01:34:20.510Z,85.64
2018-09-25T01:36:53.873Z,85.89
2018-09-25T01:39:27.340Z,85.81
2018-09-25T01:42:01.050Z,85.77
2018-09-25T01:44:34.615Z,86.02
2018-09-25T01:47:08.080Z,86.02
2018-09-25T01:49:41.549Z,86.15
2018-09-25T01:52:15.070Z,85.67
2018-09-25T01:54:48.838Z,84.68
2018-09-25T01:57:22.170Z,84.46
2018-09-25T01:59:55.827Z,83.79
2018-09-25T02:02:29.350Z,83.81
2018-09-25T02:05:02.916Z,83.41
2018-09-25T02:07:36.608Z,83.82
2018-09-25T02:10:10.230Z,83.60
2018-09-25T02:12:44.120Z,83.59
2018-09-25T02:15:17.665Z,84.33
2018-09-25T02:17:51.197Z,83.81
2018-09-25T02:20:24.843Z,83.81
2018-09-25T02:22:58.420Z,84.31
2018-09-25T02:25:31.742Z,84.26
2018-09-25T02:28:05.092Z,84.51
2018-09-25T02:30:38.661Z,84.66
2018-09-25T02:33:12.171Z,84.61
2018-09-25T02:35:45.576Z,84.73
2018-09-25T02:38:18.914Z,84.81
2018-09-25T02:40:52.727Z,85.04
2018-09-25T02:43:26.113Z,84.70
2018-09-25T02:45:59.605Z,84.94
2018-09-25T02:48:33.040Z,84.74
2018-09-25T02:51:06.580Z,84.87
2018-09-25T02:53:39.958Z,84.76
2018-09-25T02:56:13.325Z,84.86
2018-09-25T02:58:47.056Z,84.86
2018-09-25T03:01:26.987Z,84.75
2018-09-25T03:04:00.477Z,84.94
2018-09-25T03:06:34.055Z,85.70
2018-09-25T03:09:07.405Z,85.46
2018-09-25T03:11:41.108Z,85.72
2018-09-25T03:14:14.601Z,84.49
2018-09-25T03:16:47.985Z,85.10
2018-09-25T03:19:21.439Z,86.13
2018-09-25T03:21:55.172Z,86.35
2018-09-25T03:24:28.618Z,86.66
2018-09-25T03:27:02.472Z,86.48
2018-09-25T03:29:35.868Z,86.74
2018-09-25T03:32:09.502Z,86.83
2018-09-25T03:34:42.965Z,86.97
2018-09-25T03:37:16.520Z,87.15
2018-09-25T03:39:49.910Z,86.74
2018-09-25T03:42:23.360Z,86.73
2018-09-25T03:44:56.798Z,86.63
2018-09-25T03:47:30.206Z,86.00
2018-09-25T03:50:03.619Z,86.47
2018-09-25T03:52:37.140Z,86.49
2018-09-25T03:55:10.525Z,86.94
2018-09-25T03:57:44.120Z,87.15
2018-09-25T04:00:17.480Z,87.45
2018-09-25T04:02:50.901Z,87.77
2018-09-25T04:05:24.256Z,87.05
2018-09-25T04:07:57.782Z,86.76
2018-09-25T04:10:31.128Z,87.72
2018-09-25T04:13:04.552Z,87.85
2018-09-25T04:15:38.325Z,87.70
2018-09-25T04:18:12.120Z,87.88
2018-09-25T04:20:45.533Z,87.75
2018-09-25T04:23:19.576Z,87.41
2018-09-25T04:25:53.187Z,87.26
2018-09-25T04:28:26.664Z,87.90
2018-09-25T04:31:00.205Z,87.82
2018-09-25T04:33:33.881Z,87.70
2018-09-25T04:36:07.453Z,87.38
2018-09-25T04:38:40.907Z,87.27
2018-09-25T04:41:14.528Z,87.05
2018-09-25T04:43:48.232Z,87.23
2018-09-25T04:46:21.952Z,87.50
2018-09-25T04:48:55.524Z,87.77
2018-09-25T04:51:29.108Z,87.89
2018-09-25T04:54:02.635Z,87.85
2018-09-25T04:56:36.105Z,87.81
2018-09-25T04:59:09.873Z,87.76
2018-09-25T05:01:43.548Z,87.14
2018-09-25T05:04:17.186Z,87.04
2018-09-25T05:06:50.824Z,86.85
2018-09-25T05:09:24.301Z,86.60
2018-09-25T05:11:58.092Z,86.80
2018-09-25T05:14:31.601Z,87.55
2018-09-25T05:17:05.112Z,87.61
2018-09-25T05:19:38.711Z,87.21
2018-09-25T05:22:12.187Z,87.51
2018-09-25T05:24:45.668Z,87.06
2018-09-25T05:27:19.291Z,87.01
2018-09-25T05:29:53.010Z,86.79
2018-09-25T05:32:26.551Z,86.73
2018-09-25T05:35:00.091Z,86.33
2018-09-25T05:37:33.690Z,86.18
2018-09-25T05:40:07.257Z,85.69
2018-09-25T05:42:40.900Z,83.94
2018-09-25T05:45:14.441Z,82.35
2018-09-25T05:47:47.994Z,78.82
2018-09-25T05:50:21.731Z,74.90
2018-09-25T05:52:55.376Z,73.29
2018-09-25T05:55:29.149Z,72.05
2018-09-25T05:58:03.182Z,71.34
2018-09-25T06:00:36.931Z,69.62
2018-09-25T06:03:10.547Z,69.58
2018-09-25T06:05:44.264Z,68.32
2018-09-25T06:08:17.770Z,67.43
2018-09-25T06:10:51.362Z,67.14
2018-09-25T06:13:24.879Z,66.54
2018-09-25T06:15:58.562Z,65.65
2018-09-25T06:18:32.041Z,62.80
2018-09-25T06:21:05.761Z,62.45
2018-09-25T06:23:39.263Z,61.11
2018-09-25T06:26:13.064Z,57.69
2018-09-25T06:28:46.643Z,55.97
2018-09-25T06:31:20.301Z,53.19
2018-09-25T06:33:53.853Z,51.67
2018-09-25T06:36:27.596Z,54.21
2018-09-25T06:39:01.565Z,52.43
2018-09-25T06:41:35.185Z,52.59
2018-09-25T06:44:08.765Z,57.31
2018-09-25T06:46:42.422Z,61.15
2018-09-25T06:49:16.142Z,64.68
2018-09-25T06:51:49.781Z,68.19
2018-09-25T06:54:23.807Z,69.65
2018-09-25T06:56:57.311Z,69.56
2018-09-25T06:59:30.916Z,70.58
2018-09-25T07:02:04.476Z,71.20
2018-09-25T07:04:37.953Z,71.07
2018-09-25T07:07:11.793Z,70.00
2018-09-25T07:09:45.450Z,70.30
2018-09-25T07:12:19.560Z,67.46
2018-09-25T07:14:53.178Z,67.96
2018-09-25T07:17:27.320Z,67.83
2018-09-25T07:20:00.851Z,66.82
2018-09-25T07:22:34.472Z,64.89
2018-09-25T07:25:23.464Z,63.22
2018-09-25T07:30:50.396Z,61.59
2018-09-25T07:33:24.646Z,63.04
2018-09-25T07:35:58.748Z,63.18
2018-09-25T07:38:32.776Z,63.80
2018-09-25T07:41:06.589Z,64.54
2018-09-25T07:43:41.192Z,63.08
2018-09-25T07:46:14.930Z,62.03
2018-09-25T07:48:48.650Z,62.18
2018-09-25T07:51:22.361Z,62.91
2018-09-25T07:53:55.866Z,65.39
2018-09-25T07:56:30.241Z,65.84
2018-09-25T07:59:04.235Z,65.09
2018-09-25T08:01:37.789Z,65.36
2018-09-25T08:04:11.297Z,65.54
2018-09-25T08:06:45.310Z,65.22
2018-09-25T08:09:19.437Z,66.93
2018-09-25T08:11:53.121Z,68.05
2018-09-25T08:14:26.758Z,64.85
2018-09-25T08:17:00.460Z,60.68
2018-09-25T08:19:34.289Z,59.18
2018-09-25T08:22:07.717Z,62.08
2018-09-25T08:24:41.858Z,61.99
2018-09-25T08:27:15.538Z,63.22
2018-09-25T08:29:49.207Z,59.90
2018-09-25T08:32:23.145Z,60.72
2018-09-25T08:34:56.927Z,62.06
2018-09-25T08:37:30.739Z,60.57
2018-09-25T08:40:04.398Z,59.74
2018-09-25T08:42:38.190Z,60.67
2018-09-25T08:45:11.919Z,61.47
2018-09-25T08:47:45.472Z,60.91
2018-09-25T08:50:19.217Z,60.68
2018-09-25T08:52:52.658Z,59.94
2018-09-25T08:55:26.119Z,61.58
2018-09-25T08:57:59.735Z,60.47
2018-09-25T09:00:33.139Z,61.97
2018-09-25T09:03:06.937Z,62.67
2018-09-25T09:05:41.079Z,62.33
2018-09-25T09:08:14.851Z,62.99
2018-09-25T09:10:48.530Z,62.70
2018-09-25T09:13:22.311Z,62.53
2018-09-25T09:15:55.787Z,62.82
2018-09-25T09:18:29.901Z,63.07
2018-09-25T09:21:03.538Z,63.88
2018-09-25T09:23:37.169Z,63.64
2018-09-25T09:26:10.837Z,65.40
2018-09-25T09:28:44.462Z,66.18
2018-09-25T09:31:18.037Z,66.12
2018-09-25T09:33:51.625Z,64.98
2018-09-25T09:36:25.203Z,65.45
2018-09-25T09:38:58.777Z,65.85
2018-09-25T09:41:32.570Z,66.81
2018-09-25T09:44:06.097Z,66.30
2018-09-25T09:46:39.738Z,66.71
2018-09-25T09:49:13.537Z,64.73
2018-09-25T09:51:47.357Z,65.13
2018-09-25T09:54:21.109Z,66.17
2018-09-25T09:56:54.758Z,66.10
2018-09-25T09:59:28.425Z,65.61
2018-09-25T10:02:01.931Z,65.57
2018-09-25T10:04:35.397Z,64.94
2018-09-25T10:07:09.063Z,66.47
2018-09-25T10:09:42.856Z,64.00
2018-09-25T10:12:16.649Z,65.45
2018-09-25T10:14:50.269Z,66.48
2018-09-25T10:17:23.998Z,63.10
2018-09-25T10:19:57.877Z,63.58
2018-09-25T10:22:31.669Z,63.72
2018-09-25T10:25:05.337Z,64.29
2018-09-25T10:27:38.918Z,62.72
2018-09-25T10:30:12.918Z,62.89
2018-09-25T10:32:46.537Z,62.47
2018-09-25T10:35:20.877Z,62.00
2018-09-25T10:37:54.798Z,62.54
2018-09-25T10:40:28.237Z,62.81
2018-09-25T10:43:01.847Z,62.88
2018-09-25T10:45:35.457Z,62.20
2018-09-25T10:48:09.125Z,62.42
2018-09-25T10:50:42.618Z,62.52
2018-09-25T10:53:16.397Z,61.13
2018-09-25T10:55:50.207Z,59.52
2018-09-25T10:58:23.730Z,59.57
2018-09-25T11:00:57.457Z,56.77
2018-09-25T11:03:31.150Z,50.85
2018-09-25T11:06:05.010Z,49.25
2018-09-25T11:08:38.618Z,46.90
2018-09-25T11:11:12.170Z,44.31
2018-09-25T11:13:45.749Z,44.07
2018-09-25T11:16:19.530Z,44.40
2018-09-25T11:18:53.053Z,45.80
2018-09-25T11:21:26.798Z,47.41
2018-09-25T11:24:00.470Z,46.81
2018-09-25T11:26:34.190Z,49.46
2018-09-25T11:29:07.914Z,50.74
2018-09-25T11:31:41.549Z,50.90
2018-09-25T11:34:15.210Z,51.74
2018-09-25T11:36:48.930Z,51.29
2018-09-25T11:39:22.450Z,50.96
2018-09-25T11:41:56.170Z,53.42
2018-09-25T11:44:29.670Z,53.38
2018-09-25T11:47:03.364Z,54.05
2018-09-25T11:49:36.933Z,55.85
2018-09-25T11:52:10.646Z,55.09
2018-09-25T11:54:44.229Z,54.57
2018-09-25T11:57:17.970Z,54.36
2018-09-25T12:06:43.530Z,52.96
2018-09-25T12:09:17.071Z,52.31
2018-09-25T12:11:50.889Z,53.92
2018-09-25T12:14:24.569Z,53.36
2018-09-25T12:16:58.457Z,50.02
2018-09-25T12:19:31.898Z,49.07
2018-09-25T12:22:05.457Z,48.93
2018-09-25T12:24:39.138Z,48.54
2018-09-25T12:27:13.218Z,47.91
2018-09-25T12:29:48.277Z,49.40
2018-09-25T12:32:22.061Z,49.86
2018-09-25T12:34:55.657Z,49.92
2018-09-25T12:37:29.481Z,49.69
2018-09-25T12:40:03.157Z,49.70
2018-09-25T12:42:36.877Z,50.44
2018-09-25T12:45:10.660Z,48.50
2018-09-25T12:47:44.390Z,50.19
2018-09-25T12:50:17.906Z,48.37
2018-09-25T12:52:51.737Z,49.09
2018-09-25T12:55:25.237Z,48.44
2018-09-25T12:57:58.837Z,48.48
2018-09-25T13:00:32.509Z,51.28
2018-09-25T13:03:06.237Z,50.76
2018-09-25T13:05:40.037Z,53.20
2018-09-25T13:08:13.737Z,50.17
2018-09-25T13:10:47.277Z,49.55
2018-09-25T13:13:20.909Z,48.80
2018-09-25T13:15:54.582Z,48.00
2018-09-25T13:18:28.289Z,47.31
2018-09-25T13:21:01.930Z,49.69
2018-09-25T13:23:35.681Z,48.11
2018-09-25T13:26:10.090Z,50.63
2018-09-25T13:28:43.897Z,51.29
2018-09-25T13:31:17.733Z,49.74
2018-09-25T13:33:51.577Z,49.19
2018-09-25T13:36:25.198Z,49.44
2018-09-25T13:38:58.877Z,49.71
2018-09-25T13:41:32.509Z,50.36
2018-09-25T13:44:06.932Z,49.17
2018-09-25T13:46:40.429Z,50.30
2018-09-25T13:49:13.891Z,50.64
2018-09-25T13:51:47.390Z,51.38
2018-09-25T13:54:21.250Z,50.23
2018-09-25T13:56:55.050Z,50.44
2018-09-25T13:59:28.897Z,49.95
2018-09-25T14:02:03.814Z,49.92
2018-09-25T14:04:37.515Z,48.83
2018-09-25T14:07:11.238Z,49.78
2018-09-25T14:09:45.018Z,48.82
2018-09-25T14:12:18.677Z,50.09
2018-09-25T14:14:52.277Z,49.51
2018-09-25T14:17:25.889Z,50.24
2018-09-25T14:19:59.449Z,50.38
2018-09-25T14:22:33.177Z,50.62
2018-09-25T14:25:06.550Z,49.62
2018-09-25T14:27:40.225Z,49.64
2018-09-25T14:30:13.770Z,49.94
2018-09-25T14:32:47.237Z,49.52
2018-09-25T14:35:20.809Z,49.21
2018-09-25T14:37:54.409Z,49.09
2018-09-25T14:40:27.889Z,49.31
2018-09-25T14:43:01.761Z,48.48
2018-09-25T14:45:35.677Z,48.44
2018-09-25T14:48:09.197Z,47.94
2018-09-25T14:50:42.658Z,48.78
2018-09-25T14:53:16.408Z,48.61
2018-09-25T14:55:56.686Z,49.05
2018-09-25T14:58:30.235Z,49.47
2018-09-25T15:01:03.645Z,48.86
2018-09-25T15:03:37.185Z,48.73
2018-09-25T15:06:10.844Z,48.21
2018-09-25T15:08:44.612Z,48.71
2018-09-25T15:11:18.125Z,48.87
2018-09-25T15:13:51.664Z,49.42
2018-09-25T15:16:25.424Z,49.51
2018-09-25T15:18:59.240Z,50.42
2018-09-25T15:21:33.126Z,49.40
2018-09-25T15:24:06.720Z,48.92
2018-09-25T15:26:41.486Z,48.40
2018-09-25T15:29:15.492Z,49.48
2018-09-25T15:31:49.047Z,50.02
2018-09-25T15:34:22.908Z,49.86
2018-09-25T15:36:56.548Z,50.36
2018-09-25T15:39:30.186Z,50.86
2018-09-25T15:42:03.895Z,50.93
2018-09-25T15:44:37.552Z,51.44
2018-09-25T15:47:11.074Z,50.75
2018-09-25T15:49:44.672Z,51.60
2018-09-25T15:52:18.292Z,51.47
2018-09-25T15:54:52.112Z,51.58
2018-09-25T15:57:25.852Z,51.79
2018-09-25T15:59:59.433Z,52.35
2018-09-25T16:02:32.762Z,51.71
2018-09-25T16:05:06.250Z,52.13
2018-09-25T16:07:39.829Z,51.63
2018-09-25T16:10:13.621Z,52.37
2018-09-25T16:12:47.352Z,52.10
2018-09-25T16:15:20.953Z,52.61
2018-09-25T16:17:54.535Z,51.32
2018-09-25T16:20:28.005Z,50.57
2018-09-25T16:23:01.681Z,51.75
2018-09-25T16:25:35.186Z,51.32
2018-09-25T16:28:08.754Z,50.78
2018-09-25T16:30:42.273Z,51.75
2018-09-25T16:33:15.955Z,52.47
2018-09-25T16:35:49.607Z,52.16
2018-09-25T16:38:23.126Z,53.31
2018-09-25T16:40:56.721Z,53.16
2018-09-25T16:43:30.203Z,53.56
2018-09-25T16:46:05.188Z,53.64
2018-09-25T16:48:38.668Z,53.71
2018-09-25T16:51:12.148Z,53.80
2018-09-25T16:53:45.791Z,54.13
2018-09-25T16:56:20.115Z,54.18
2018-09-25T16:58:53.450Z,55.38
2018-09-25T17:01:26.936Z,56.37
2018-09-25T17:04:00.655Z,56.96
2018-09-25T17:06:34.829Z,58.20
2018-09-25T17:09:08.432Z,57.87
2018-09-25T17:11:42.254Z,59.68
2018-09-25T17:14:15.674Z,59.15
2018-09-25T17:16:49.214Z,61.13
2018-09-25T17:19:22.832Z,61.85
2018-09-25T17:21:56.431Z,62.00
2018-09-25T17:24:29.884Z,65.42
2018-09-25T17:27:03.573Z,67.06
2018-09-25T17:29:37.294Z,68.81
2018-09-25T17:32:10.912Z,68.57
2018-09-25T17:34:44.593Z,67.89
2018-09-25T17:37:18.118Z,67.08
2018-09-25T17:39:51.846Z,66.76
2018-09-25T17:42:25.608Z,66.34
2018-09-25T17:44:59.211Z,68.02
2018-09-25T17:47:32.818Z,69.27
2018-09-25T17:50:06.212Z,70.61
2018-09-25T17:52:39.549Z,70.83
2018-09-25T17:55:13.124Z,71.84
2018-09-25T17:57:46.638Z,71.58
2018-09-25T18:00:20.475Z,71.24
2018-09-25T18:02:54.408Z,71.04
2018-09-25T18:05:27.913Z,71.38
2018-09-25T18:08:01.666Z,70.72
2018-09-25T18:10:35.094Z,69.54
2018-09-25T18:13:08.562Z,69.50
2018-09-25T18:15:42.325Z,68.18
2018-09-25T18:18:15.750Z,67.48
2018-09-25T18:20:49.259Z,67.22
2018-09-25T18:23:22.750Z,66.53
2018-09-25T18:25:56.208Z,66.46
2018-09-25T18:28:29.888Z,68.55
2018-09-25T18:31:03.665Z,70.84
2018-09-25T18:33:37.503Z,72.51
2018-09-25T18:36:11.249Z,72.83
2018-09-25T18:38:45.008Z,73.42
2018-09-25T18:41:18.882Z,73.38
2018-09-25T18:43:53.702Z,74.22
2018-09-25T18:46:27.547Z,74.87
2018-09-25T18:49:01.159Z,74.76
2018-09-25T18:51:34.921Z,74.72
2018-09-25T18:54:08.709Z,75.42
2018-09-25T18:56:42.462Z,75.06
2018-09-25T18:59:16.175Z,75.05
2018-09-25T19:01:50.021Z,75.47
2018-09-25T19:04:24.770Z,76.71
2018-09-25T19:06:58.547Z,77.76
2018-09-25T19:09:32.406Z,78.29
2018-09-25T19:12:06.208Z,78.24
2018-09-25T19:14:40.047Z,77.76
2018-09-25T19:17:13.904Z,77.62
2018-09-25T19:19:47.793Z,77.03
2018-09-25T19:22:21.578Z,77.20
2018-09-25T19:24:55.462Z,78.13
2018-09-25T19:27:29.200Z,78.38
2018-09-25T19:30:03.217Z,79.12
2018-09-25T19:32:37.241Z,78.67
2018-09-25T19:35:11.327Z,79.05
2018-09-25T19:37:52.326Z,78.14
2018-09-25T19:40:27.502Z,77.99
2018-09-25T19:43:01.298Z,77.21
2018-09-25T19:45:35.171Z,78.03
2018-09-25T19:48:08.917Z,78.39
2018-09-25T19:50:42.663Z,79.26
2018-09-25T19:53:16.618Z,79.37
2018-09-25T19:55:51.570Z,79.73
2018-09-25T19:58:25.536Z,80.12
2018-09-25T20:00:59.182Z,79.99
2018-09-25T20:03:33.135Z,79.40
2018-09-25T20:06:06.940Z,79.78
2018-09-25T20:08:40.837Z,80.13
2018-09-25T20:11:14.737Z,79.95
2018-09-25T20:13:48.412Z,80.05
2018-09-25T20:16:22.141Z,81.01
2018-09-25T20:18:55.996Z,80.91
2018-09-25T20:21:29.781Z,80.80
2018-09-25T20:24:03.728Z,80.39
2018-09-25T20:26:37.574Z,77.56
2018-09-25T20:29:11.849Z,79.38
2018-09-25T20:31:45.536Z,78.88
2018-09-25T20:34:19.501Z,78.96
2018-09-25T20:36:53.286Z,78.16
2018-09-25T20:39:27.058Z,77.09
2018-09-25T20:42:00.937Z,76.70
2018-09-25T20:44:34.702Z,74.28
2018-09-25T20:47:08.197Z,72.18
2018-09-25T20:49:42.034Z,70.10
2018-09-25T20:52:15.468Z,69.51
2018-09-25T20:54:48.977Z,69.12
2018-09-25T20:57:22.443Z,68.75
2018-09-25T20:59:55.934Z,67.90
2018-09-25T21:02:29.410Z,67.76
2018-09-25T21:05:02.845Z,67.54
2018-09-25T21:07:36.316Z,67.86
2018-09-25T21:10:09.857Z,67.35
2018-09-25T21:12:43.252Z,67.52
2018-09-25T21:15:16.849Z,67.49
2018-09-25T21:17:50.320Z,67.39
2018-09-25T21:20:23.893Z,67.38
2018-09-25T21:22:57.305Z,67.56
2018-09-25T21:25:30.767Z,67.55
2018-09-25T21:28:04.230Z,67.97
2018-09-25T21:30:37.785Z,68.06
2018-09-25T21:33:11.381Z,68.11
2018-09-25T21:35:45.218Z,68.11
2018-09-25T21:38:18.925Z,67.41
2018-09-25T21:40:52.580Z,66.86
2018-09-25T21:43:25.981Z,67.13
2018-09-25T21:45:59.360Z,67.65
2018-09-25T21:48:32.904Z,67.50
2018-09-25T21:51:06.358Z,67.24
2018-09-25T21:53:39.692Z,66.56
2018-09-25T21:56:13.101Z,66.05
2018-09-25T21:58:46.461Z,65.75
2018-09-25T22:01:19.799Z,65.31
2018-09-25T22:03:53.244Z,65.37
2018-09-25T22:06:26.796Z,65.08
2018-09-25T22:09:00.262Z,64.97
2018-09-25T22:11:33.703Z,64.56
2018-09-25T22:14:07.176Z,64.42
2018-09-25T22:16:40.803Z,64.78
2018-09-25T22:19:14.161Z,64.67
2018-09-25T22:21:47.606Z,65.04
2018-09-25T22:24:20.968Z,64.69
2018-09-25T22:26:54.508Z,64.74
2018-09-25T22:29:27.896Z,64.97
2018-09-25T22:32:01.356Z,65.04
2018-09-25T22:34:34.756Z,65.17
2018-09-25T22:37:08.258Z,64.89
2018-09-25T22:39:41.925Z,64.68
2018-09-25T22:42:15.461Z,64.89
2018-09-25T22:44:49.025Z,64.17
2018-09-25T22:47:22.495Z,63.49
2018-09-25T22:49:55.965Z,63.76
2018-09-25T22:52:29.499Z,64.26
2018-09-25T22:55:02.981Z,63.97
2018-09-25T22:57:36.495Z,63.71
2018-09-25T23:00:09.941Z,63.47
2018-09-25T23:02:43.420Z,63.59
2018-09-25T23:05:17.134Z,64.73
2018-09-25T23:07:50.570Z,64.24
2018-09-25T23:10:23.955Z,64.19
2018-09-25T23:12:57.610Z,64.42
2018-09-25T23:15:31.028Z,64.57
2018-09-25T23:18:04.460Z,64.77
2018-09-25T23:20:37.825Z,65.06
2018-09-25T23:23:11.285Z,65.62
2018-09-25T23:25:44.703Z,69.31
2018-09-25T23:28:18.338Z,69.87
2018-09-25T23:30:51.839Z,71.15
2018-09-25T23:33:25.260Z,72.07
2018-09-25T23:35:58.478Z,72.99
2018-09-25T23:38:32.120Z,73.98
2018-09-25T23:41:23.436Z,74.73
2018-09-25T23:44:31.590Z,75.14
2018-09-25T23:47:08.560Z,75.23
2018-09-25T23:49:42.030Z,75.84
2018-09-25T23:52:44.241Z,74.99
2018-09-25T23:55:17.705Z,73.30
2018-09-25T23:57:48.220Z,71.41
